NEODyS-2

Near Earth Objects - Dynamic Site
NEODyS ∴ Observatories ∴ Site 691 ∴ Obs & residuals
Contact »
691  ▹ 
OBSERVATIONS AND RESIDUALS

691-Steward Observatory, Kitt Peak-Spacewatch

Detections | Residuals | Detections & Residuals

[1-200] [201-400] [401-600] [601-800] [801-1000] [1001-1200] [1201-1400] [1401-1600] [1601-1800] [1801-2000] [2001-2200] [2201-2400] [2401-2600] [2601-2800] [2801-3000] [3001-3200] [3201-3400] [3401-3600] [3601-3800] [3801-4000] [4001-4200] [4201-4400] [4401-4600] [4601-4800] [4801-5000] [5001-5200] [5201-5400] [5401-5600] [5601-5800] [5801-6000] [6001-6200] [6201-6400] [6401-6600] [6601-6800] [6801-7000] [7001-7200] [7201-7400] [7401-7600] [7601-7800] [7801-8000] [8001-8200] [8201-8400] [8401-8600] [8601-8800] [8801-9000] [9001-9200] [9201-9400] [9401-9600] [9601-9800] [9801-10000] [10001-10200] [10201-10400] [10401-10600] [10601-10800] [10801-11000] [11001-11200] [11201-11400] [11401-11600] [11601-11800] [11801-12000] [12001-12200] [12201-12400] [12401-12600] [12601-12800] [12801-13000] [13001-13200] [13201-13400] [13401-13600] [13601-13800] [13801-14000] [14001-14200] [14201-14400] [14401-14600] [14601-14800] [14801-15000] [15001-15200] [15201-15400] [15401-15600] [15601-15800] [15801-16000] [16001-16200] [16201-16400] [16401-16600] [16601-16800] [16801-17000] [17001-17200] [17201-17400] [17401-17600] [17601-17800] [17801-18000] [18001-18200] [18201-18400] [18401-18600] [18601-18800] [18801-19000] [19001-19200] [19201-19400] [19401-19600] [19601-19800] [19801-20000] [20001-20200] [20201-20400] [20401-20600] [20601-20800] [20801-21000] [21001-21200] [21201-21400] [21401-21600] [21601-21800] [21801-22000] [22001-22200] [22201-22400] [22401-22600] [22601-22800] [22801-23000] [23001-23200] [23201-23400] [23401-23600] [23601-23800] [23801-24000] [24001-24200] [24201-24400] [24401-24600] [24601-24800] [24801-25000] [25001-25200] [25201-25400] [25401-25600] [25601-25800] [25801-26000] [26001-26200] [26201-26400] [26401-26600] [26601-26800] [26801-27000] [27001-27200] [27201-27400] [27401-27600] [27601-27800] [27801-28000] [28001-28200] [28201-28400] [28401-28600] [28601-28800] [28801-29000] [29001-29200] [29201-29400] [29401-29600] [29601-29800] [29801-30000] [30001-30200] [30201-30400] [30401-30600] [30601-30800] [30801-31000] [31001-31200] [31201-31400] [31401-31600] [31601-31800] [31801-32000] [32001-32200] [32201-32400] [32401-32600] [32601-32800] [32801-33000] [33001-33200] [33201-33400] [33401-33600] [33601-33800] [33801-34000] [34001-34200] [34201-34400] [34401-34600] [34601-34800] [34801-35000] [35001-35200] [35201-35400] [35401-35600] [35601-35800] [35801-36000] [36001-36200] [36201-36400] [36401-36600] [36601-36800] [36801-37000] [37001-37200] [37201-37400] [37401-37600] [37601-37800] [37801-38000] [38001-38200] [38201-38400] [38401-38600] [38601-38800] [38801-39000] [39001-39200] [39201-39400] [39401-39600] [39601-39800] [39801-40000] [40001-40200] [40201-40400] [40401-40600] [40601-40800] [40801-41000] [41001-41200] [41201-41400] [41401-41600] [41601-41800] [41801-42000] [42001-42200] [42201-42400] [42401-42600] [42601-42800] [42801-43000] [43001-43200] [43201-43400] [43401-43600] [43601-43800] [43801-44000] [44001-44200] [44201-44400] [44401-44600] [44601-44800] [44801-45000] [45001-45200] [45201-45400] [45401-45600] [45601-45800] [45801-46000] [46001-46200] [46201-46400] [46401-46600] [46601-46800] [46801-47000] [47001-47200] [47201-47400] [47401-47600] [47601-47800] [47801-48000] [48001-48200] [48201-48400] [48401-48600] [48601-48800] [48801-49000] [49001-49200] [49201-49400] [49401-49600] [49601-49800] [49801-50000] [50001-50200] [50201-50388]

Designation T Tech N Date Right Ascension Declination Apparent Magnitude Star Catalog Site code χ Used A Used M
yr-mo-day precision hr:min:sec precision rms F bias residual deg min sec precision rms F bias residual mag/col rms residual
1996FR3 O C H 2009-04-26.25513 1.000E-05 14:18:30.600 1.500E-01 0.500 F 0.262 -1.164 -16° 05' 51.50" 1.000E-01 0.500 F 0.084 -0.671 o 691 2.69 Yes No
2009HU2 O C H 2009-04-27.14586 1.000E-05 12:40:48.910 1.500E-01 0.500 F 0.132 0.168 +05° 35' 42.00" 1.000E-01 0.500 F 0.075 -0.308 o 691 0.71 Yes No
2009HU2 O C H 2009-04-27.16724 1.000E-05 12:40:47.530 1.500E-01 0.500 F 0.132 -0.145 +05° 36' 00.50" 1.000E-01 0.500 F 0.075 0.137 o 691 0.40 Yes No
2009HU2 O C H 2009-04-27.18864 1.000E-05 12:40:46.160 1.500E-01 0.500 F 0.132 -0.244 +05° 36' 18.70" 1.000E-01 0.500 F 0.075 0.286 20.8 V 0.70 -0.25 o 691 0.76 Yes Yes
2005SA71 O C 2009-04-27.21352 1.000E-05 14:18:34.650 1.500E-01 0.500 F 0.075 -0.429 -05° 16' 42.00" 1.000E-01 0.500 F 0.031 0.096 19.9 V 0.70 0.68 o 691 0.88 Yes Yes
2005SA71 O C 2009-04-27.23113 1.000E-05 14:18:32.090 1.500E-01 0.500 F 0.075 -0.117 -05° 16' 52.60" 1.000E-01 0.500 F 0.031 0.075 19.6 V 0.70 0.38 o 691 0.28 Yes Yes
2005SA71 O C 2009-04-27.24889 1.000E-05 14:18:29.470 1.500E-01 0.500 F 0.075 -0.292 -05° 17' 03.60" 1.000E-01 0.500 F 0.031 -0.262 19.6 V 0.70 0.38 o 691 0.79 Yes Yes
2009HL21 O C 2009-04-29.14004 1.000E-05 14:11:20.340 1.500E-01 0.500 F 0.104 -0.528 -03° 11' 25.70" 1.000E-01 0.500 F 0.096 0.100 18.7 V 0.70 0.04 o 691 1.12 Yes Yes
1998FH74 O C H 2009-04-29.14266 1.000E-05 13:56:49.700 1.500E-01 0.500 F 0.196 0.350 -04° 35' 59.40" 1.000E-01 0.500 F 0.122 -0.195 o 691 0.80 Yes No
2005SA71 O C 2009-04-29.14759 1.000E-05 14:13:55.610 1.500E-01 0.500 F 0.175 -0.400 -05° 36' 31.50" 1.000E-01 0.500 F 0.058 0.037 20.1 V 0.70 0.90 o 691 0.81 Yes Yes
2009HL21 O C 2009-04-29.15768 1.000E-05 14:11:22.160 1.500E-01 0.500 F 0.104 0.013 -03° 12' 03.50" 1.000E-01 0.500 F 0.096 -0.159 19.0 V 0.70 0.34 o 691 0.33 Yes Yes
1998FH74 O C H 2009-04-29.16029 1.000E-05 13:56:48.660 1.500E-01 0.500 F 0.196 0.047 -04° 35' 53.50" 1.000E-01 0.500 F 0.122 -0.784 o 691 1.57 Yes No
2005SA71 O C 2009-04-29.16522 1.000E-05 14:13:53.010 1.500E-01 0.500 F 0.175 0.161 -05° 36' 42.50" 1.000E-01 0.500 F 0.058 0.308 19.6 V 0.70 0.40 o 691 0.70 Yes Yes
2009HL21 O C 2009-04-29.17530 1.000E-05 14:11:23.890 1.500E-01 0.500 F 0.104 -0.103 -03° 12' 40.70" 1.000E-01 0.500 F 0.096 0.055 19.0 V 0.70 0.34 o 691 0.25 Yes Yes
1998FH74 O C H 2009-04-29.17792 1.000E-05 13:56:47.630 1.500E-01 0.500 F 0.196 -0.086 -04° 35' 47.00" 1.000E-01 0.500 F 0.122 -0.773 21.5 V 0.70 -0.21 o 691 1.56 Yes Yes
2005SA71 O C 2009-04-29.18284 1.000E-05 14:13:50.340 1.500E-01 0.500 F 0.175 -0.224 -05° 36' 54.00" 1.000E-01 0.500 F 0.058 0.068 19.5 V 0.70 0.30 o 691 0.47 Yes Yes
2009HY51 O C H 2009-04-29.35937 1.000E-05 15:28:55.490 1.500E-01 0.500 F 0.026 -0.222 -03° 40' 16.70" 1.000E-01 0.500 F 0.216 -0.374 21.0 V 0.70 0.12 o 691 0.89 Yes Yes
2009JK1 O C 2009-04-29.36429 1.000E-05 15:43:21.520 1.500E-01 0.500 F 0.060 -0.132 -02° 34' 50.80" 1.000E-01 0.500 F 0.113 -0.007 19.9 V 0.70 -0.24 o 691 0.27 Yes Yes
2009HD82 O C 2009-04-29.37431 1.000E-05 15:52:51.080 1.500E-01 0.500 F 0.268 -0.240 -04° 25' 13.70" 1.000E-01 0.500 F 0.151 -0.139 19.8 V 0.70 -0.17 o 691 0.56 Yes Yes
2009JK1 O C 2009-04-29.38194 1.000E-05 15:43:21.190 1.500E-01 0.500 F 0.060 -0.221 -02° 34' 26.00" 1.000E-01 0.500 F 0.113 -0.048 19.8 V 0.70 -0.34 o 691 0.45 Yes Yes
2009HD82 O C 2009-04-29.39196 1.000E-05 15:52:50.530 1.500E-01 0.500 F 0.268 -0.400 -04° 24' 22.20" 1.000E-01 0.500 F 0.151 -0.025 19.7 V 0.70 -0.26 o 691 0.81 Yes Yes
2009HY51 O C H 2009-04-29.39466 1.000E-05 15:28:51.210 1.500E-01 0.500 F 0.026 -0.237 -03° 40' 56.50" 1.000E-01 0.500 F 0.216 -0.164 20.9 V 0.70 0.02 o 691 0.59 Yes Yes
2009JK1 O C 2009-04-29.39960 1.000E-05 15:43:20.860 1.500E-01 0.500 F 0.060 -0.318 -02° 34' 01.30" 1.000E-01 0.500 F 0.113 -0.218 19.6 V 0.70 -0.54 o 691 0.78 Yes Yes
2009HD82 O C 2009-04-29.40961 1.000E-05 15:52:49.980 1.500E-01 0.500 F 0.268 -0.595 -04° 23' 31.00" 1.000E-01 0.500 F 0.151 -0.300 19.6 V 0.70 -0.36 o 691 1.34 Yes Yes
1998UT18 O C t 2009-04-30.22859 1.000E-05 15:33:01.610 1.500E-01 0.500 F -0.032 0.533 -00° 37' 56.40" 1.000E-01 0.500 F 0.115 -0.230 18.5 V 0.70 -0.14 o 691 1.16 Yes Yes
1998UT18 O C H 2009-04-30.24384 1.000E-05 15:32:58.990 1.500E-01 0.500 F -0.032 0.053 -00° 38' 15.30" 1.000E-01 0.500 F 0.115 -0.569 o 691 1.15 Yes No
1998UT18 O C H 2009-04-30.25909 1.000E-05 15:32:56.400 1.500E-01 0.500 F -0.032 0.129 -00° 38' 33.20" 1.000E-01 0.500 F 0.115 0.093 o 691 0.32 Yes No
2009HY67 O C t 2009-04-30.31997 1.000E-05 15:48:08.930 1.500E-01 0.500 F 0.142 0.445 -13° 40' 04.80" 1.000E-01 0.500 F 0.154 -0.374 21.1 V 0.70 0.34 o 691 1.26 Yes Yes
2009HF88 O C 2009-04-30.32515 1.000E-05 15:37:58.630 1.500E-01 0.500 F -0.064 -0.038 -14° 55' 13.50" 1.000E-01 0.500 F 0.142 -0.063 21.0 V 0.70 0.30 o 691 0.15 Yes Yes
2009HY67 O C H 2009-04-30.33764 1.000E-05 15:48:05.590 1.500E-01 0.500 F 0.142 -0.475 -13° 38' 05.30" 1.000E-01 0.500 F 0.154 0.193 o 691 1.12 Yes No
2009HF88 O C 2009-04-30.34282 1.000E-05 15:37:57.310 1.500E-01 0.500 F -0.064 -0.080 -14° 54' 42.30" 1.000E-01 0.500 F 0.142 -0.121 20.5 V 0.70 -0.20 o 691 0.30 Yes Yes
2009HF88 O C 2009-04-30.36049 1.000E-05 15:37:56.010 1.500E-01 0.500 F -0.064 0.177 -14° 54' 10.80" 1.000E-01 0.500 F 0.142 0.094 20.4 V 0.70 -0.30 o 691 0.41 Yes Yes
2002LJ3 O C 2009-04-30.37089 1.000E-05 15:58:37.590 1.500E-01 0.500 F 0.080 0.009 -03° 33' 20.90" 1.000E-01 0.500 F 0.236 -0.106 19.7 V 0.70 -0.12 o 691 0.21 Yes Yes
2002LJ3 O C 2009-04-30.38854 1.000E-05 15:58:36.190 1.500E-01 0.500 F 0.080 -0.403 -03° 33' 11.00" 1.000E-01 0.500 F 0.236 0.924 21.1 V 0.70 1.28 o 691 2.02 Yes Yes
2002LJ3 O C 2009-04-30.40617 1.000E-05 15:58:34.840 1.500E-01 0.500 F 0.080 -0.092 -03° 33' 03.00" 1.000E-01 0.500 F 0.236 0.060 19.9 V 0.70 0.08 o 691 0.22 Yes Yes
2000DN8 O C H 2009-04-30.43510 1.000E-05 21:17:44.080 1.500E-01 0.500 F 0.007 0.082 +02° 53' 50.20" 1.000E-01 0.500 F 0.208 -0.583 20.0 V 0.70 0.02 o 691 1.18 Yes Yes
2000DN8 O C H 2009-04-30.46029 1.000E-05 21:17:46.530 1.500E-01 0.500 F 0.007 0.233 +02° 53' 55.20" 1.000E-01 0.500 F 0.208 -0.505 o 691 1.11 Yes No
2009DL46 O C t 2009-04-30.46791 1.000E-05 20:42:00.400 1.500E-01 0.500 F -0.027 0.749 -02° 24' 12.70" 1.000E-01 0.500 F 0.166 -1.528 20.2 V 0.70 -0.54 o 691 3.39 No Yes
2009DL46 O C t 2009-04-30.47062 1.000E-05 20:42:01.120 1.500E-01 0.500 F -0.027 0.207 -02° 24' 20.80" 1.000E-01 0.500 F 0.166 -0.486 19.7 V 0.70 -1.04 o 691 1.06 Yes Yes
1998FH74 O C H 2009-05-01.15843 1.000E-05 13:54:54.970 1.500E-01 0.500 F 0.197 0.382 -04° 23' 43.30" 1.000E-01 0.500 F 0.122 -0.473 21.3 V 0.70 -0.45 o 691 1.22 Yes Yes
1998FH74 O C H 2009-05-01.17607 1.000E-05 13:54:53.920 1.500E-01 0.500 F 0.197 -0.190 -04° 23' 36.50" 1.000E-01 0.500 F 0.122 -0.036 21.2 V 0.70 -0.55 o 691 0.39 Yes Yes
2000TG2 O C H 2009-05-01.26559 1.000E-05 15:23:38.990 1.500E-01 0.500 F 0.164 0.914 -10° 03' 01.20" 1.000E-01 0.500 F 0.104 -1.096 o 691 2.88 Yes No
2000TG2 O C H 2009-05-01.28324 1.000E-05 15:23:37.420 1.500E-01 0.500 F 0.164 0.132 -10° 02' 45.90" 1.000E-01 0.500 F 0.104 -1.634 o 691 3.27 No No
2003WO7 O C 2009-05-01.32077 1.000E-05 15:45:42.960 1.500E-01 0.500 F 0.201 -0.239 -09° 27' 20.90" 1.000E-01 0.500 F 0.109 0.219 20.8 V 0.70 -0.30 o 691 0.66 Yes Yes
2003WO7 O C 2009-05-01.33847 1.000E-05 15:45:41.830 1.500E-01 0.500 F 0.201 -0.337 -09° 27' 17.90" 1.000E-01 0.500 F 0.109 -0.155 20.9 V 0.70 -0.20 o 691 0.75 Yes Yes
2009HY67 O C t 2009-05-01.34859 1.000E-05 15:45:12.100 1.500E-01 0.500 F 0.146 1.273 -11° 46' 36.70" 1.000E-01 0.500 F 0.170 -1.436 21.2 V 0.70 0.43 o 691 3.52 No Yes
2003WO7 O C 2009-05-01.35616 1.000E-05 15:45:40.700 1.500E-01 0.500 F 0.201 -0.425 -09° 27' 14.20" 1.000E-01 0.500 F 0.109 0.158 20.9 V 0.70 -0.20 o 691 0.93 Yes Yes
2009HY67 O C t 2009-05-01.36626 1.000E-05 15:45:08.900 1.500E-01 0.500 F 0.146 0.656 -11° 44' 40.90" 1.000E-01 0.500 F 0.170 -0.405 20.5 V 0.70 -0.27 o 691 1.77 Yes Yes
2009JK1 O C 2009-05-01.38677 1.000E-05 15:42:52.220 1.500E-01 0.500 F 0.118 -0.501 -01° 46' 41.20" 1.000E-01 0.500 F 0.174 0.170 20.3 V 0.70 0.25 o 691 1.07 Yes Yes
2009JK1 O C 2009-05-01.40441 1.000E-05 15:42:51.890 1.500E-01 0.500 F 0.118 0.465 -01° 46' 16.30" 1.000E-01 0.500 F 0.174 -0.522 19.7 V 0.70 -0.35 o 691 1.41 Yes Yes
2009JK1 O C 2009-05-01.42205 1.000E-05 15:42:51.430 1.500E-01 0.500 F 0.118 -0.563 -01° 45' 50.00" 1.000E-01 0.500 F 0.174 0.175 19.9 V 0.70 -0.15 o 691 1.19 Yes Yes
Almeria O C H 2009-05-01.44873 1.000E-05 20:57:15.990 1.500E-01 0.500 F 0.023 0.202 -00° 05' 30.10" 1.000E-01 0.500 F 0.150 -0.003 21.2 V 0.70 -0.48 o 691 0.40 Yes Yes
Almeria O C H 2009-05-01.46133 1.000E-05 20:57:16.860 1.500E-01 0.500 F 0.023 0.634 -00° 05' 26.60" 1.000E-01 0.500 F 0.150 -0.813 o 691 2.06 Yes No
2005SA71 O C t 2009-05-04.17258 1.000E-05 14:01:19.220 1.500E-01 0.500 F 0.299 0.224 -06° 33' 27.50" 1.000E-01 0.500 F 0.052 -0.472 o 691 1.05 Yes No
2005SA71 O C t 2009-05-04.19022 1.000E-05 14:01:16.480 1.500E-01 0.500 F 0.299 0.933 -06° 33' 39.90" 1.000E-01 0.500 F 0.052 0.011 o 691 1.88 Yes No
2002LJ3 O C H 2009-05-04.36034 1.000E-05 15:53:24.080 1.500E-01 0.500 F 0.184 -0.153 -03° 00' 44.40" 1.000E-01 0.500 F 0.196 -0.080 o 691 0.35 Yes No
2002LJ3 O C H 2009-05-04.39569 1.000E-05 15:53:20.990 1.500E-01 0.500 F 0.184 -0.149 -03° 00' 27.50" 1.000E-01 0.500 F 0.196 -0.041 o 691 0.31 Yes No
2000DN8 O C 2009-05-04.44599 1.000E-05 21:24:15.830 1.500E-01 0.500 F -0.057 -0.153 +03° 06' 14.70" 1.000E-01 0.500 F 0.115 -0.079 o 691 0.34 Yes No
2000DN8 O C 2009-05-04.45860 1.000E-05 21:24:17.050 1.500E-01 0.500 F -0.057 -0.073 +03° 06' 16.90" 1.000E-01 0.500 F 0.115 -0.111 o 691 0.27 Yes No
2000DN8 O C 2009-05-04.47121 1.000E-05 21:24:18.270 1.500E-01 0.500 F -0.057 0.025 +03° 06' 19.40" 1.000E-01 0.500 F 0.115 0.159 o 691 0.32 Yes No
2009HD82 O C t 2009-05-05.37887 1.000E-05 15:49:47.180 1.500E-01 0.500 F 0.017 0.301 +01° 34' 27.10" 1.000E-01 0.500 F 0.187 -0.562 o 691 1.28 Yes No
2009JK1 O C 2009-05-05.38652 1.000E-05 15:41:31.480 1.500E-01 0.500 F -0.035 0.143 -00° 07' 30.30" 1.000E-01 0.500 F 0.224 -0.336 o 691 0.73 Yes No
2009JL1 O C 2009-05-05.39145 1.000E-05 15:55:23.750 1.500E-01 0.500 F 0.202 -1.141 -00° 48' 55.10" 1.000E-01 0.500 F 0.161 -0.103 20.4 V 0.70 0.42 o 691 2.32 Yes Yes
2009HD82 O C t 2009-05-05.39654 1.000E-05 15:49:46.100 1.500E-01 0.500 F 0.017 0.392 +01° 35' 44.90" 1.000E-01 0.500 F 0.187 -0.834 o 691 1.86 Yes No
2009JK1 O C 2009-05-05.40420 1.000E-05 15:41:30.930 1.500E-01 0.500 F -0.035 -0.145 -00° 07' 02.80" 1.000E-01 0.500 F 0.224 0.227 19.9 V 0.70 0.01 o 691 0.54 Yes Yes
2009JM1 O C t 2009-05-05.40913 1.000E-05 15:56:20.560 1.500E-01 0.500 F 0.202 1.148 -00° 59' 59.70" 1.000E-01 0.500 F 0.161 -2.666 18.7 V 0.70 0.10 o 691 5.38 No Yes
2009JL1 O C 2009-05-05.40913 1.000E-05 15:55:21.380 1.500E-01 0.500 F 0.202 -0.200 -00° 49' 06.70" 1.000E-01 0.500 F 0.161 -0.114 20.3 V 0.70 0.32 o 691 0.46 Yes Yes
2009JK1 O C 2009-05-05.42187 1.000E-05 15:41:30.410 1.500E-01 0.500 F -0.035 -0.049 -00° 06' 36.20" 1.000E-01 0.500 F 0.224 -0.100 19.9 V 0.70 0.01 o 691 0.22 Yes Yes
2009JM1 O C t 2009-05-05.42681 1.000E-05 15:56:05.850 1.500E-01 0.500 F 0.202 0.262 -00° 56' 31.00" 1.000E-01 0.500 F 0.161 -0.760 18.6 V 0.70 0.00 o 691 1.75 Yes Yes
2009JL1 O C 2009-05-05.42681 1.000E-05 15:55:18.960 1.500E-01 0.500 F 0.202 -0.089 -00° 49' 18.10" 1.000E-01 0.500 F 0.161 0.086 20.1 V 0.70 0.12 o 691 0.25 Yes Yes
Almeria O C H 2009-05-05.44216 1.000E-05 21:01:38.160 1.500E-01 0.500 F 0.003 0.469 +00° 16' 38.60" 1.000E-01 0.500 F 0.149 -0.646 o 691 1.60 Yes No
Almeria O C H 2009-05-05.45479 1.000E-05 21:01:38.900 1.500E-01 0.500 F 0.003 -0.136 +00° 16' 43.90" 1.000E-01 0.500 F 0.149 0.571 o 691 1.17 Yes No
Almeria O C H 2009-05-05.46741 1.000E-05 21:01:39.670 1.500E-01 0.500 F 0.003 -0.261 +00° 16' 47.30" 1.000E-01 0.500 F 0.149 -0.108 o 691 0.56 Yes No
2002EL6 O C t 2009-05-06.42367 1.000E-05 21:04:10.120 1.500E-01 0.500 F 0.024 0.404 +01° 38' 28.60" 1.000E-01 0.500 F 0.157 -0.454 18.5 V 0.70 0.75 o 691 1.24 Yes Yes
2002EL6 O C t 2009-05-06.44891 1.000E-05 21:04:23.380 1.500E-01 0.500 F 0.024 0.346 +01° 38' 04.50" 1.000E-01 0.500 F 0.157 -0.763 18.4 V 0.70 0.64 o 691 1.71 Yes Yes
Didymos O C 2009-05-13.25817 1.000E-05 15:41:54.480 1.500E-01 0.500 F -0.055 -0.474 -17° 37' 06.40" 1.000E-01 0.500 F 0.072 0.094 20.4 V 0.70 0.06 o 691 0.97 Yes Yes
1998PG O C 2009-05-13.25817 1.000E-05 15:36:27.060 1.500E-01 0.500 F -0.076 0.035 -17° 04' 40.70" 1.000E-01 0.500 F 0.088 0.144 20.5 V 0.70 0.05 o 691 0.30 Yes Yes
Didymos O C 2009-05-13.27586 1.000E-05 15:41:52.800 1.500E-01 0.500 F -0.055 -0.590 -17° 37' 02.40" 1.000E-01 0.500 F 0.072 0.239 20.7 V 0.70 0.36 o 691 1.27 Yes Yes
1998PG O C 2009-05-13.27586 1.000E-05 15:36:25.710 1.500E-01 0.500 F -0.076 -0.440 -17° 04' 33.50" 1.000E-01 0.500 F 0.088 0.267 20.6 V 0.70 0.15 o 691 1.03 Yes Yes
Didymos O C 2009-05-13.29349 1.000E-05 15:41:51.170 1.500E-01 0.500 F -0.055 -0.046 -17° 36' 58.80" 1.000E-01 0.500 F 0.072 -0.027 20.3 V 0.70 -0.04 o 691 0.11 Yes Yes
1998PG O C 2009-05-13.29349 1.000E-05 15:36:24.380 1.500E-01 0.500 F -0.076 -0.674 -17° 04' 26.70" 1.000E-01 0.500 F 0.088 -0.004 20.5 V 0.70 0.05 o 691 1.35 Yes Yes
2003LC5 O C 2009-05-14.14863 1.000E-05 14:14:45.790 1.500E-01 0.500 F 0.103 -0.391 +16° 08' 36.30" 1.000E-01 0.500 F 0.215 -0.045 19.3 V 0.70 -0.01 o 691 0.79 Yes Yes
2003LC5 O C 2009-05-14.16448 1.000E-05 14:14:43.670 1.500E-01 0.500 F 0.103 -0.142 +16° 08' 28.00" 1.000E-01 0.500 F 0.215 -0.070 19.3 V 0.70 -0.01 o 691 0.32 Yes Yes
2003LC5 O C 2009-05-14.18032 1.000E-05 14:14:41.670 1.500E-01 0.500 F 0.103 1.864 +16° 08' 21.30" 1.000E-01 0.500 F 0.215 1.532 18.9 V 0.70 -0.41 o 691 4.82 No Yes
2009JG2 O C t 2009-05-14.24139 1.000E-05 14:17:55.210 1.500E-01 0.500 F 0.130 -0.166 +02° 39' 56.30" 1.000E-01 0.500 F 0.173 -0.607 18.1 V 0.70 0.14 o 691 1.30 Yes Yes
2003HF2 O C 2009-05-14.36780 1.000E-05 15:23:18.330 1.500E-01 0.500 F 0.156 -0.644 -13° 47' 08.10" 1.000E-01 0.500 F -0.008 0.263 20.4 V 0.70 -0.14 o 691 1.39 Yes Yes
2003HF2 O C 2009-05-14.38549 1.000E-05 15:23:15.410 1.500E-01 0.500 F 0.156 -0.817 -13° 46' 56.80" 1.000E-01 0.500 F -0.008 -0.182 20.9 V 0.70 0.36 o 691 1.67 Yes Yes
2003HF2 O C 2009-05-14.40338 1.000E-05 15:23:12.410 1.500E-01 0.500 F 0.156 -1.737 -13° 46' 44.70" 1.000E-01 0.500 F -0.008 0.016 20.9 V 0.70 0.36 o 691 3.47 No Yes
2009JL1 O C 2009-05-14.42623 1.000E-05 15:32:49.210 1.500E-01 0.500 F -0.007 0.006 -03° 00' 08.30" 1.000E-01 0.500 F 0.106 -0.056 19.6 V 0.70 0.05 o 691 0.11 Yes Yes
2002LJ3 O C 2009-05-14.43621 1.000E-05 15:37:49.720 1.500E-01 0.500 F 0.040 -0.379 -01° 49' 41.50" 1.000E-01 0.500 F 0.108 0.066 19.7 V 0.70 0.25 o 691 0.77 Yes Yes
2009JL1 O C 2009-05-14.44383 1.000E-05 15:32:46.060 1.500E-01 0.500 F -0.007 -0.128 -03° 00' 27.30" 1.000E-01 0.500 F 0.106 0.106 19.7 V 0.70 0.16 o 691 0.34 Yes Yes
2002LJ3 O C 2009-05-14.45381 1.000E-05 15:37:47.910 1.500E-01 0.500 F 0.040 -0.302 -01° 49' 35.00" 1.000E-01 0.500 F 0.108 0.274 19.7 V 0.70 0.25 o 691 0.82 Yes Yes
2009JL1 O C 2009-05-14.46143 1.000E-05 15:32:42.900 1.500E-01 0.500 F -0.007 -0.642 -03° 00' 47.10" 1.000E-01 0.500 F 0.106 -0.529 19.4 V 0.70 -0.14 o 691 1.68 Yes Yes
2002LJ3 O C 2009-05-14.47142 1.000E-05 15:37:46.090 1.500E-01 0.500 F 0.040 -0.453 -01° 49' 29.00" 1.000E-01 0.500 F 0.108 -0.019 19.7 V 0.70 0.25 o 691 0.91 Yes Yes
2009JR5 O C 2009-05-15.24381 1.000E-05 15:51:50.320 1.500E-01 0.500 F 0.238 -0.108 -10° 03' 29.70" 1.000E-01 0.500 F 0.186 -0.134 21.0 V 0.70 0.12 o 691 0.35 Yes Yes
2001AE2 O C H 2009-05-15.25888 1.000E-05 16:07:27.540 1.500E-01 0.500 F 0.154 -0.191 -12° 57' 01.60" 1.000E-01 0.500 F 0.113 0.105 o 691 0.44 Yes No
2009JR5 O C 2009-05-15.26151 1.000E-05 15:51:47.890 1.500E-01 0.500 F 0.238 -0.099 -10° 03' 24.20" 1.000E-01 0.500 F 0.186 -0.243 21.1 V 0.70 0.22 o 691 0.53 Yes Yes
2001AE2 O C H 2009-05-15.27673 1.000E-05 16:07:26.350 1.500E-01 0.500 F 0.154 -0.214 -12° 56' 55.30" 1.000E-01 0.500 F 0.113 -0.033 o 691 0.44 Yes No
2009JR5 O C 2009-05-15.27936 1.000E-05 15:51:45.450 1.500E-01 0.500 F 0.238 0.124 -10° 03' 18.30" 1.000E-01 0.500 F 0.186 -0.021 20.9 V 0.70 0.02 o 691 0.25 Yes Yes
2001AE2 O C H 2009-05-15.29441 1.000E-05 16:07:25.220 1.500E-01 0.500 F 0.154 0.622 -12° 56' 48.20" 1.000E-01 0.500 F 0.113 0.612 o 691 1.76 Yes No
2008KP O C t 2009-05-15.30244 1.000E-05 16:00:14.380 1.500E-01 0.500 F 0.128 -0.922 +02° 39' 23.00" 1.000E-01 0.500 F 0.087 -0.293 20.7 V 0.70 -0.35 o 691 1.95 Yes Yes
2008KP O C t 2009-05-15.32355 1.000E-05 16:00:10.120 1.500E-01 0.500 F 0.128 0.497 +02° 39' 18.10" 1.000E-01 0.500 F 0.087 -0.451 20.7 V 0.70 -0.35 o 691 1.35 Yes Yes
2008KP O C t 2009-05-15.34117 1.000E-05 16:00:06.550 1.500E-01 0.500 F 0.128 1.479 +02° 39' 13.70" 1.000E-01 0.500 F 0.087 -0.882 o 691 3.41 No No
2002UM11 O C 2009-05-15.36663 1.000E-05 15:43:07.540 1.500E-01 0.500 F 0.161 -0.327 -10° 02' 36.40" 1.000E-01 0.500 F 0.150 0.116 19.1 V 0.70 0.12 o 691 0.70 Yes Yes
2002UM11 O C 2009-05-15.38431 1.000E-05 15:43:05.990 1.500E-01 0.500 F 0.161 -0.217 -10° 02' 14.50" 1.000E-01 0.500 F 0.150 0.037 19.2 V 0.70 0.22 o 691 0.44 Yes Yes
2002UM11 O C 2009-05-15.40565 1.000E-05 15:43:04.120 1.500E-01 0.500 F 0.161 -0.113 -10° 01' 48.10" 1.000E-01 0.500 F 0.150 -0.102 19.2 V 0.70 0.22 o 691 0.30 Yes Yes
2004JN13 O C 2009-05-16.26711 1.000E-05 16:04:17.160 1.500E-01 0.500 F 0.196 -0.393 -09° 20' 05.00" 1.000E-01 0.500 F 0.122 0.101 18.9 V 0.70 0.27 o 691 0.81 Yes Yes
2004JN13 O C 2009-05-16.28219 1.000E-05 16:04:15.970 1.500E-01 0.500 F 0.196 -0.142 -09° 20' 03.00" 1.000E-01 0.500 F 0.122 0.203 18.8 V 0.70 0.17 o 691 0.50 Yes Yes
2004JN13 O C 2009-05-16.29729 1.000E-05 16:04:14.750 1.500E-01 0.500 F 0.196 -0.294 -09° 20' 01.20" 1.000E-01 0.500 F 0.122 0.096 18.9 V 0.70 0.27 o 691 0.62 Yes Yes
2009EQ2 O C 2009-05-16.31269 1.000E-05 16:14:30.020 1.500E-01 0.500 F 0.145 -0.329 +07° 22' 35.20" 1.000E-01 0.500 F 0.146 -0.175 19.7 V 0.70 0.26 o 691 0.78 Yes Yes
2000KN44 O C t 2009-05-16.32271 1.000E-05 16:20:18.670 1.500E-01 0.500 F 0.177 -0.171 +05° 36' 43.50" 1.000E-01 0.500 F 0.113 -0.952 18.7 V 0.70 -0.12 o 691 1.96 Yes Yes
2009EQ2 O C 2009-05-16.33034 1.000E-05 16:14:31.190 1.500E-01 0.500 F 0.145 -0.236 +07° 22' 34.40" 1.000E-01 0.500 F 0.146 -0.232 19.5 V 0.70 0.06 o 691 0.69 Yes Yes
2000KN44 O C H 2009-05-16.34036 1.000E-05 16:20:16.420 1.500E-01 0.500 F 0.177 0.750 +05° 35' 51.80" 1.000E-01 0.500 F 0.113 -0.056 o 691 1.52 Yes No
2009EQ2 O C 2009-05-16.34798 1.000E-05 16:14:32.350 1.500E-01 0.500 F 0.145 -0.257 +07° 22' 33.80" 1.000E-01 0.500 F 0.146 -0.031 19.4 V 0.70 -0.04 o 691 0.54 Yes Yes
2000KN44 O C t 2009-05-16.35798 1.000E-05 16:20:14.070 1.500E-01 0.500 F 0.177 0.115 +05° 34' 58.70" 1.000E-01 0.500 F 0.113 -0.631 18.7 V 0.70 -0.12 o 691 1.30 Yes Yes
2009JK1 O C 2009-05-16.43030 1.000E-05 15:35:31.020 1.500E-01 0.500 F 0.075 -0.145 +04° 44' 07.10" 1.000E-01 0.500 F 0.143 0.039 19.5 V 0.70 -0.11 o 691 0.30 Yes Yes
2009JK1 O C 2009-05-16.44795 1.000E-05 15:35:30.230 1.500E-01 0.500 F 0.075 -0.077 +04° 44' 35.50" 1.000E-01 0.500 F 0.143 0.093 19.5 V 0.70 -0.11 o 691 0.24 Yes Yes
2009JK1 O C 2009-05-16.46559 1.000E-05 15:35:29.370 1.500E-01 0.500 F 0.075 -1.223 +04° 45' 03.60" 1.000E-01 0.500 F 0.143 -0.124 20.5 V 0.70 0.89 o 691 2.48 Yes Yes
2011SL102 O C 2009-05-17.31973 1.000E-05 15:23:57.230 1.500E-01 0.500 F 0.020 -0.619 -16° 53' 06.60" 1.000E-01 0.500 F -0.012 0.242 21.2 V 0.70 0.45 o 691 1.35 Yes Yes
2011SL102 O C 2009-05-17.33492 1.000E-05 15:23:55.950 1.500E-01 0.500 F 0.020 -0.073 -16° 53' 06.00" 1.000E-01 0.500 F -0.012 0.568 20.8 V 0.70 0.05 o 691 1.15 Yes Yes
2011SL102 O C 2009-05-17.35011 1.000E-05 15:23:54.620 1.500E-01 0.500 F 0.020 -0.260 -16° 53' 06.00" 1.000E-01 0.500 F -0.012 0.278 20.7 V 0.70 -0.06 o 691 0.77 Yes Yes
1998PG O C H 2009-05-24.31987 1.000E-05 15:22:55.100 1.500E-01 0.500 F 0.036 -0.086 -15° 48' 47.30" 1.000E-01 0.500 F 0.025 0.168 o 691 0.38 Yes No
Didymos O C H 2009-05-24.31987 1.000E-05 15:24:36.490 1.500E-01 0.500 F 0.020 0.323 -16° 53' 56.30" 1.000E-01 0.500 F -0.012 -0.042 o 691 0.65 Yes No
1998PG O C H 2009-05-24.33757 1.000E-05 15:22:53.760 1.500E-01 0.500 F 0.036 -0.312 -15° 48' 40.10" 1.000E-01 0.500 F 0.025 0.025 o 691 0.63 Yes No
Didymos O C H 2009-05-24.33757 1.000E-05 15:24:34.800 1.500E-01 0.500 F 0.020 0.479 -16° 53' 52.50" 1.000E-01 0.500 F -0.012 -0.537 o 691 1.44 Yes No
1998PG O C H 2009-05-24.35523 1.000E-05 15:22:52.450 1.500E-01 0.500 F 0.036 -0.173 -15° 48' 32.80" 1.000E-01 0.500 F 0.025 -0.017 o 691 0.35 Yes No
Didymos O C H 2009-05-24.35523 1.000E-05 15:24:33.090 1.500E-01 0.500 F 0.020 0.263 -16° 53' 48.20" 1.000E-01 0.500 F -0.012 -0.544 o 691 1.21 Yes No
2001MG1 O C 2009-05-24.42871 1.000E-05 22:28:33.350 1.500E-01 0.500 F -0.040 -0.380 +14° 16' 05.40" 1.000E-01 0.500 F 0.323 -0.549 o 691 1.35 Yes No
2001MG1 O C 2009-05-24.44135 1.000E-05 22:28:36.780 1.500E-01 0.500 F -0.040 0.227 +14° 16' 11.80" 1.000E-01 0.500 F 0.323 -0.150 o 691 0.56 Yes No
2001MG1 O C 2009-05-24.45399 1.000E-05 22:28:40.160 1.500E-01 0.500 F -0.040 0.133 +14° 16' 17.90" 1.000E-01 0.500 F 0.323 -0.040 o 691 0.29 Yes No
2000KN44 O C 2009-05-25.26630 1.000E-05 16:02:37.410 1.500E-01 0.500 F 0.142 -0.256 -01° 39' 11.80" 1.000E-01 0.500 F 0.148 0.088 18.8 V 0.70 -0.07 o 691 0.55 Yes Yes
2000KN44 O C 2009-05-25.28391 1.000E-05 16:02:35.370 1.500E-01 0.500 F 0.142 -0.173 -01° 40' 01.30" 1.000E-01 0.500 F 0.148 0.276 18.7 V 0.70 -0.17 o 691 0.66 Yes Yes
2000KN44 O C 2009-05-25.30153 1.000E-05 16:02:33.300 1.500E-01 0.500 F 0.142 -0.512 -01° 40' 51.20" 1.000E-01 0.500 F 0.148 0.078 19.9 V 0.70 1.03 o 691 1.05 Yes Yes
1998PG O C H 2009-05-25.31954 1.000E-05 15:21:42.690 1.500E-01 0.500 F 0.087 0.486 -15° 41' 55.90" 1.000E-01 0.500 F 0.058 0.328 o 691 1.17 Yes No
1998PG O C H 2009-05-25.33720 1.000E-05 15:21:41.330 1.500E-01 0.500 F 0.087 -0.199 -15° 41' 49.50" 1.000E-01 0.500 F 0.058 -0.571 o 691 1.21 Yes No
1998PG O C H 2009-05-25.35486 1.000E-05 15:21:40.040 1.500E-01 0.500 F 0.087 0.101 -15° 41' 42.20" 1.000E-01 0.500 F 0.058 -0.586 o 691 1.19 Yes No
2009JR O C H 2009-05-25.37019 1.000E-05 14:55:59.370 1.500E-01 0.500 F 0.184 -0.661 -04° 08' 46.00" 1.000E-01 0.500 F 0.088 -0.319 o 691 1.49 Yes No
2009JG1 O C 2009-05-25.37019 1.000E-05 14:56:24.260 1.500E-01 0.500 F 0.184 -0.448 -04° 05' 35.80" 1.000E-01 0.500 F 0.088 -0.366 19.5 V 0.70 0.02 o 691 1.21 Yes Yes
2009JR O C H 2009-05-25.38781 1.000E-05 14:56:01.220 1.500E-01 0.500 F 0.184 -0.020 -04° 08' 40.20" 1.000E-01 0.500 F 0.088 -0.302 o 691 0.61 Yes No
2009JG1 O C 2009-05-25.38781 1.000E-05 14:56:25.200 1.500E-01 0.500 F 0.184 0.107 -04° 04' 33.10" 1.000E-01 0.500 F 0.088 -0.081 19.4 V 0.70 -0.08 o 691 0.28 Yes Yes
2009JR O C H 2009-05-25.40543 1.000E-05 14:56:03.050 1.500E-01 0.500 F 0.184 0.040 -04° 08' 34.90" 1.000E-01 0.500 F 0.088 -0.787 o 691 1.60 Yes No
2009JG1 O C 2009-05-25.40543 1.000E-05 14:56:26.090 1.500E-01 0.500 F 0.184 -0.334 -04° 03' 30.60" 1.000E-01 0.500 F 0.088 0.006 19.5 V 0.70 0.02 o 691 0.70 Yes Yes
2004JN13 O C 2009-05-26.19858 1.000E-05 15:50:27.910 1.500E-01 0.500 F 0.187 0.461 -09° 02' 37.00" 1.000E-01 0.500 F 0.072 0.173 18.6 V 0.70 0.14 o 691 0.99 Yes Yes
2004LC2 O C 2009-05-26.19858 1.000E-05 15:54:25.900 1.500E-01 0.500 F 0.202 -0.213 -09° 57' 33.20" 1.000E-01 0.500 F 0.158 -0.591 20.6 V 0.70 1.04 o 691 1.26 Yes Yes
2001AE2 O C 2009-05-26.21113 1.000E-05 15:56:51.620 1.500E-01 0.500 F 0.148 -0.215 -12° 01' 39.10" 1.000E-01 0.500 F 0.169 0.060 17.6 V 0.70 0.38 o 691 0.45 Yes Yes
2004LC2 O C 2009-05-26.21969 1.000E-05 15:54:22.370 1.500E-01 0.500 F 0.202 0.009 -09° 57' 26.80" 1.000E-01 0.500 F 0.158 -0.154 19.7 V 0.70 0.14 o 691 0.31 Yes Yes
2004JN13 O C 2009-05-26.21969 1.000E-05 15:50:25.970 1.500E-01 0.500 F 0.187 -0.230 -09° 02' 35.50" 1.000E-01 0.500 F 0.072 0.058 18.7 V 0.70 0.24 o 691 0.48 Yes Yes
2001AE2 O C 2009-05-26.23571 1.000E-05 15:56:49.910 1.500E-01 0.500 F 0.148 -0.303 -12° 01' 34.30" 1.000E-01 0.500 F 0.169 0.120 17.6 V 0.70 0.38 o 691 0.66 Yes Yes
2004JN13 O C 2009-05-26.24080 1.000E-05 15:50:24.090 1.500E-01 0.500 F 0.187 0.013 -09° 02' 33.90" 1.000E-01 0.500 F 0.072 0.032 18.6 V 0.70 0.14 o 691 0.07 Yes Yes
2004LC2 O C 2009-05-26.24080 1.000E-05 15:54:18.790 1.500E-01 0.500 F 0.202 -0.399 -09° 57' 20.70" 1.000E-01 0.500 F 0.158 -0.046 19.7 V 0.70 0.14 o 691 0.81 Yes Yes
2001AE2 O C 2009-05-26.25339 1.000E-05 15:56:48.680 1.500E-01 0.500 F 0.148 -0.193 -12° 01' 30.80" 1.000E-01 0.500 F 0.169 0.129 17.6 V 0.70 0.38 o 691 0.47 Yes Yes
2009JR5 O C H 2009-05-26.31964 1.000E-05 15:28:15.440 1.500E-01 0.500 F 0.158 -0.011 -09° 15' 27.80" 1.000E-01 0.500 F -0.007 -0.661 21.0 V 0.70 -0.15 o 691 1.33 Yes Yes
2009JR5 O C H 2009-05-26.33730 1.000E-05 15:28:13.240 1.500E-01 0.500 F 0.158 -0.362 -09° 15' 24.60" 1.000E-01 0.500 F -0.007 -0.839 21.3 V 0.70 0.15 o 691 1.83 Yes Yes
2009JR5 O C H 2009-05-26.35498 1.000E-05 15:28:11.030 1.500E-01 0.500 F 0.158 -0.888 -09° 15' 20.90" 1.000E-01 0.500 F -0.007 -0.538 21.0 V 0.70 -0.15 o 691 2.09 Yes Yes
2009DF1 O C 2009-05-26.37042 1.000E-05 15:05:52.300 1.500E-01 0.500 F 0.219 -0.037 -02° 11' 47.80" 1.000E-01 0.500 F 0.099 0.267 20.1 V 0.70 0.06 o 691 0.55 Yes Yes
2009KY1 O C 2009-05-26.37042 1.000E-05 15:07:58.930 1.500E-01 0.500 F 0.180 0.029 -02° 34' 55.90" 1.000E-01 0.500 F 0.110 -0.224 19.5 V 0.70 -0.10 o 691 0.47 Yes Yes
2002LJ3 O C 2009-05-26.38040 1.000E-05 15:17:26.560 1.500E-01 0.500 F 0.069 -1.166 -01° 01' 03.20" 1.000E-01 0.500 F 0.199 0.408 20.9 V 0.70 1.38 o 691 2.48 Yes Yes
2009DF1 O C 2009-05-26.38803 1.000E-05 15:05:52.470 1.500E-01 0.500 F 0.219 -0.124 -02° 12' 02.80" 1.000E-01 0.500 F 0.099 0.073 20.0 V 0.70 -0.04 o 691 0.29 Yes Yes
2009KY1 O C 2009-05-26.38803 1.000E-05 15:08:01.210 1.500E-01 0.500 F 0.180 -0.156 -02° 33' 44.90" 1.000E-01 0.500 F 0.110 0.116 19.8 V 0.70 0.19 o 691 0.41 Yes Yes
2002LJ3 O C 2009-05-26.39802 1.000E-05 15:17:24.760 1.500E-01 0.500 F 0.069 -0.664 -01° 01' 01.40" 1.000E-01 0.500 F 0.199 0.107 19.6 V 0.70 0.08 o 691 1.35 Yes Yes
2009DF1 O C 2009-05-26.40311 1.000E-05 15:05:52.650 1.500E-01 0.500 F 0.219 0.177 -02° 12' 15.40" 1.000E-01 0.500 F 0.099 0.148 20.0 V 0.70 -0.04 o 691 0.47 Yes Yes
2009KY1 O C 2009-05-26.40311 1.000E-05 15:08:03.220 1.500E-01 0.500 F 0.180 -0.027 -02° 32' 44.60" 1.000E-01 0.500 F 0.110 -0.013 20.0 V 0.70 0.39 o 691 0.06 Yes Yes
2002LJ3 O C 2009-05-26.41310 1.000E-05 15:17:23.220 1.500E-01 0.500 F 0.069 -0.305 -01° 00' 59.70" 1.000E-01 0.500 F 0.199 0.014 19.6 V 0.70 0.08 o 691 0.61 Yes Yes
2009KM7 O C 2009-05-26.42629 1.000E-05 23:06:21.500 1.500E-01 0.500 F -0.141 -0.004 +17° 46' 09.30" 1.000E-01 0.500 F 0.214 -0.010 20.0 V 0.70 -0.14 o 691 0.02 Yes Yes
2009KM7 O C 2009-05-26.43890 1.000E-05 23:06:24.300 1.500E-01 0.500 F -0.141 -0.218 +17° 46' 29.10" 1.000E-01 0.500 F 0.214 -0.006 20.0 V 0.70 -0.14 o 691 0.44 Yes Yes
2009KM7 O C 2009-05-26.45152 1.000E-05 23:06:27.110 1.500E-01 0.500 F -0.141 -0.278 +17° 46' 48.60" 1.000E-01 0.500 F 0.214 -0.306 20.1 V 0.70 -0.04 o 691 0.83 Yes Yes
2002UM11 O C 2009-05-27.27063 1.000E-05 15:26:59.590 1.500E-01 0.500 F 0.013 -0.258 -06° 13' 30.80" 1.000E-01 0.500 F 0.208 0.030 o 691 0.52 Yes No
2002UM11 O C 2009-05-27.28826 1.000E-05 15:26:58.200 1.500E-01 0.500 F -0.003 -0.699 -06° 13' 12.70" 1.000E-01 0.500 F 0.203 -0.370 o 691 1.59 Yes No
2002UM11 O C 2009-05-27.30589 1.000E-05 15:26:56.880 1.500E-01 0.500 F -0.003 -0.125 -06° 12' 53.90" 1.000E-01 0.500 F 0.203 -0.076 o 691 0.29 Yes No
2011SL102 O C 2009-05-28.26969 1.000E-05 15:09:48.500 1.500E-01 0.500 F 0.070 -0.288 -16° 50' 51.80" 1.000E-01 0.500 F 0.004 0.184 21.2 V 0.70 -0.06 o 691 0.70 Yes Yes
Didymos O C H 2009-05-28.27215 1.000E-05 15:18:32.900 1.500E-01 0.500 F 0.019 -0.515 -16° 38' 21.10" 1.000E-01 0.500 F -0.012 -0.416 20.8 V 0.70 0.27 o 691 1.32 Yes Yes
2011SL102 O C 2009-05-28.28731 1.000E-05 15:09:47.180 1.500E-01 0.500 F 0.070 -1.098 -16° 50' 51.60" 1.000E-01 0.500 F 0.004 0.298 21.6 V 0.70 0.33 o 691 2.31 Yes Yes
2011SL102 O C 2009-05-28.30496 1.000E-05 15:09:45.990 1.500E-01 0.500 F 0.070 -0.031 -16° 50' 51.80" 1.000E-01 0.500 F 0.004 -0.007 21.0 V 0.70 -0.27 o 691 0.06 Yes Yes
Didymos O C H 2009-05-28.30742 1.000E-05 15:18:29.650 1.500E-01 0.500 F 0.019 -0.006 -16° 38' 12.40" 1.000E-01 0.500 F -0.012 -0.010 20.8 V 0.70 0.27 o 691 0.02 Yes Yes
2009HV58 O C t 2009-05-28.32574 1.000E-05 15:39:43.320 1.500E-01 0.500 F 0.049 0.128 +03° 11' 28.20" 1.000E-01 0.500 F 0.123 -1.403 o 691 2.90 Yes No
2004JR1 O C t 2009-05-28.38474 1.000E-05 22:30:22.490 1.500E-01 0.500 F -0.060 0.495 +13° 58' 06.90" 1.000E-01 0.500 F 0.354 -0.535 19.8 V 0.70 0.37 o 691 1.57 Yes Yes
2004JR1 O C t 2009-05-28.39736 1.000E-05 22:30:25.630 1.500E-01 0.500 F -0.060 0.317 +13° 57' 59.40" 1.000E-01 0.500 F 0.354 -0.117 19.6 V 0.70 0.17 o 691 0.73 Yes Yes
2009HM73 O C H 2009-05-29.32005 1.000E-05 15:17:31.810 1.500E-01 0.500 F 0.112 0.361 -12° 22' 52.50" 1.000E-01 0.500 F 0.125 -0.328 21.6 V 0.70 0.98 o 691 1.03 Yes Yes
1998PG O C 2009-05-29.32762 1.000E-05 15:16:58.260 1.500E-01 0.500 F 0.178 0.286 -15° 14' 50.90" 1.000E-01 0.500 F 0.017 0.124 20.6 V 0.70 -0.07 o 691 0.63 Yes Yes
2009HM73 O C H 2009-05-29.33534 1.000E-05 15:17:33.880 1.500E-01 0.500 F 0.112 -0.561 -12° 23' 40.80" 1.000E-01 0.500 F 0.125 0.658 20.9 V 0.70 0.28 o 691 1.83 Yes Yes
1998PG O C 2009-05-29.34289 1.000E-05 15:16:57.140 1.500E-01 0.500 F 0.178 -0.134 -15° 14' 45.20" 1.000E-01 0.500 F 0.017 -0.332 20.7 V 0.70 0.03 o 691 0.72 Yes Yes
2009HM73 O C H 2009-05-29.35061 1.000E-05 15:17:36.090 1.500E-01 0.500 F 0.112 0.432 -12° 24' 31.40" 1.000E-01 0.500 F 0.125 -0.799 20.9 V 0.70 0.28 o 691 1.93 Yes Yes
1998PG O C 2009-05-29.35816 1.000E-05 15:16:56.030 1.500E-01 0.500 F 0.178 -0.435 -15° 14' 38.60" 1.000E-01 0.500 F 0.017 0.101 20.9 V 0.70 0.23 o 691 0.90 Yes Yes
2009HF88 O C H 2009-05-29.37827 1.000E-05 15:09:13.230 1.500E-01 0.500 F 0.094 0.625 -03° 51' 33.30" 1.000E-01 0.500 F 0.115 -0.237 21.4 V 0.70 -0.19 o 691 1.35 Yes Yes
2009HF88 O C H 2009-05-29.39354 1.000E-05 15:09:12.520 1.500E-01 0.500 F 0.094 -0.837 -03° 51' 19.30" 1.000E-01 0.500 F 0.115 0.369 21.5 V 0.70 -0.09 o 691 1.85 Yes Yes
2009HF88 O C H 2009-05-29.41989 1.000E-05 15:09:11.590 1.500E-01 0.500 F 0.094 0.913 -03° 50' 57.20" 1.000E-01 0.500 F 0.115 -0.631 o 691 2.24 Yes No
2009KO4 O C t 2009-05-30.25746 1.000E-05 15:43:46.510 1.500E-01 0.500 F 0.044 -0.298 +04° 04' 16.80" 1.000E-01 0.500 F 0.166 -0.863 21.5 V 0.70 1.02 o 691 1.87 Yes Yes
2009KO4 O C t 2009-05-30.27533 1.000E-05 15:43:55.280 1.500E-01 0.500 F 0.044 -0.307 +04° 03' 52.40" 1.000E-01 0.500 F 0.166 -0.041 20.7 V 0.70 0.22 o 691 0.66 Yes Yes
2009JR5 O C H 2009-05-30.32003 1.000E-05 15:20:40.880 1.500E-01 0.500 F 0.170 -0.390 -09° 04' 56.30" 1.000E-01 0.500 F 0.036 -0.340 21.2 V 0.70 -0.12 o 691 1.04 Yes Yes
2009JR5 O C H 2009-05-30.33771 1.000E-05 15:20:38.930 1.500E-01 0.500 F 0.170 0.201 -09° 04' 53.50" 1.000E-01 0.500 F 0.036 0.128 o 691 0.48 Yes No
2009JR5 O C H 2009-05-30.35537 1.000E-05 15:20:36.890 1.500E-01 0.500 F 0.170 -0.651 -09° 04' 50.80" 1.000E-01 0.500 F 0.036 0.485 21.3 V 0.70 -0.02 o 691 1.64 Yes Yes
2009DF1 O C H 2009-05-30.37332 1.000E-05 15:07:06.650 1.500E-01 0.500 F 0.180 -0.422 -03° 08' 34.70" 1.000E-01 0.500 F 0.175 0.138 20.4 V 0.70 0.15 o 691 0.91 Yes Yes
2002LJ3 O C 2009-05-30.38332 1.000E-05 15:10:52.410 1.500E-01 0.500 F 0.080 -0.139 -00° 56' 14.50" 1.000E-01 0.500 F 0.177 -0.037 19.8 V 0.70 0.21 o 691 0.29 Yes Yes
2009DF1 O C H 2009-05-30.39095 1.000E-05 15:07:06.980 1.500E-01 0.500 F 0.180 0.315 -03° 08' 50.50" 1.000E-01 0.500 F 0.175 -0.647 o 691 1.46 Yes No
2002LJ3 O C 2009-05-30.40095 1.000E-05 15:10:50.660 1.500E-01 0.500 F 0.080 -0.299 -00° 56' 13.90" 1.000E-01 0.500 F 0.177 0.101 19.7 V 0.70 0.11 o 691 0.63 Yes Yes
2009DF1 O C H 2009-05-30.40605 1.000E-05 15:07:07.220 1.500E-01 0.500 F 0.180 0.163 -03° 09' 02.30" 1.000E-01 0.500 F 0.175 0.408 20.3 V 0.70 0.05 o 691 0.90 Yes Yes
2002LJ3 O C 2009-05-30.41605 1.000E-05 15:10:49.210 1.500E-01 0.500 F 0.080 0.207 -00° 56' 13.70" 1.000E-01 0.500 F 0.177 -0.091 19.6 V 0.70 0.01 o 691 0.45 Yes Yes
2001MG1 O C 2009-05-30.43354 1.000E-05 22:56:57.670 1.500E-01 0.500 F -0.119 -0.391 +14° 56' 23.70" 1.000E-01 0.500 F 0.286 -0.054 19.4 V 0.70 0.03 o 691 0.81 Yes Yes
2001MG1 O C 2009-05-30.44617 1.000E-05 22:57:01.420 1.500E-01 0.500 F -0.119 -0.141 +14° 56' 28.30" 1.000E-01 0.500 F 0.286 0.226 19.4 V 0.70 0.03 o 691 0.54 Yes Yes
2001MG1 O C 2009-05-30.45879 1.000E-05 22:57:05.130 1.500E-01 0.500 F -0.119 -0.401 +14° 56' 32.40" 1.000E-01 0.500 F 0.286 0.022 19.4 V 0.70 0.03 o 691 0.83 Yes Yes

[1-200] [201-400] [401-600] [601-800] [801-1000] [1001-1200] [1201-1400] [1401-1600] [1601-1800] [1801-2000] [2001-2200] [2201-2400] [2401-2600] [2601-2800] [2801-3000] [3001-3200] [3201-3400] [3401-3600] [3601-3800] [3801-4000] [4001-4200] [4201-4400] [4401-4600] [4601-4800] [4801-5000] [5001-5200] [5201-5400] [5401-5600] [5601-5800] [5801-6000] [6001-6200] [6201-6400] [6401-6600] [6601-6800] [6801-7000] [7001-7200] [7201-7400] [7401-7600] [7601-7800] [7801-8000] [8001-8200] [8201-8400] [8401-8600] [8601-8800] [8801-9000] [9001-9200] [9201-9400] [9401-9600] [9601-9800] [9801-10000] [10001-10200] [10201-10400] [10401-10600] [10601-10800] [10801-11000] [11001-11200] [11201-11400] [11401-11600] [11601-11800] [11801-12000] [12001-12200] [12201-12400] [12401-12600] [12601-12800] [12801-13000] [13001-13200] [13201-13400] [13401-13600] [13601-13800] [13801-14000] [14001-14200] [14201-14400] [14401-14600] [14601-14800] [14801-15000] [15001-15200] [15201-15400] [15401-15600] [15601-15800] [15801-16000] [16001-16200] [16201-16400] [16401-16600] [16601-16800] [16801-17000] [17001-17200] [17201-17400] [17401-17600] [17601-17800] [17801-18000] [18001-18200] [18201-18400] [18401-18600] [18601-18800] [18801-19000] [19001-19200] [19201-19400] [19401-19600] [19601-19800] [19801-20000] [20001-20200] [20201-20400] [20401-20600] [20601-20800] [20801-21000] [21001-21200] [21201-21400] [21401-21600] [21601-21800] [21801-22000] [22001-22200] [22201-22400] [22401-22600] [22601-22800] [22801-23000] [23001-23200] [23201-23400] [23401-23600] [23601-23800] [23801-24000] [24001-24200] [24201-24400] [24401-24600] [24601-24800] [24801-25000] [25001-25200] [25201-25400] [25401-25600] [25601-25800] [25801-26000] [26001-26200] [26201-26400] [26401-26600] [26601-26800] [26801-27000] [27001-27200] [27201-27400] [27401-27600] [27601-27800] [27801-28000] [28001-28200] [28201-28400] [28401-28600] [28601-28800] [28801-29000] [29001-29200] [29201-29400] [29401-29600] [29601-29800] [29801-30000] [30001-30200] [30201-30400] [30401-30600] [30601-30800] [30801-31000] [31001-31200] [31201-31400] [31401-31600] [31601-31800] [31801-32000] [32001-32200] [32201-32400] [32401-32600] [32601-32800] [32801-33000] [33001-33200] [33201-33400] [33401-33600] [33601-33800] [33801-34000] [34001-34200] [34201-34400] [34401-34600] [34601-34800] [34801-35000] [35001-35200] [35201-35400] [35401-35600] [35601-35800] [35801-36000] [36001-36200] [36201-36400] [36401-36600] [36601-36800] [36801-37000] [37001-37200] [37201-37400] [37401-37600] [37601-37800] [37801-38000] [38001-38200] [38201-38400] [38401-38600] [38601-38800] [38801-39000] [39001-39200] [39201-39400] [39401-39600] [39601-39800] [39801-40000] [40001-40200] [40201-40400] [40401-40600] [40601-40800] [40801-41000] [41001-41200] [41201-41400] [41401-41600] [41601-41800] [41801-42000] [42001-42200] [42201-42400] [42401-42600] [42601-42800] [42801-43000] [43001-43200] [43201-43400] [43401-43600] [43601-43800] [43801-44000] [44001-44200] [44201-44400] [44401-44600] [44601-44800] [44801-45000] [45001-45200] [45201-45400] [45401-45600] [45601-45800] [45801-46000] [46001-46200] [46201-46400] [46401-46600] [46601-46800] [46801-47000] [47001-47200] [47201-47400] [47401-47600] [47601-47800] [47801-48000] [48001-48200] [48201-48400] [48401-48600] [48601-48800] [48801-49000] [49001-49200] [49201-49400] [49401-49600] [49601-49800] [49801-50000] [50001-50200] [50201-50388]